Ningbo Lishe International Airport
ZSNB : now visible

Airfield :











YOU CAN JOIN US ON...

 
LOGIN :

Register | Disclaimer

   EN    FR    IT 

 









Legend :    VFR   Marginal VFR   IFR   Intensive IFR   Very Intensive IFR
Visi :
Ceiling :
>= 8 km
>= 3000ft
5 to 8 km
1000 to 3000 ft
1500m to 5 km
500 to 1000 ft
800 to 1500m
200 to 500 ft
< 800m
< 200 ft
Symbols :   Thunderstorms  Fog  Heavy snow  Heavy precipitations  Wind > 20 kt







- Airport Elevation : 13 ft
- IATA code : NGB


ZSNB - Ningbo Lishe International

CURRENT METAR :
  • 162000Z 32002MPS 290V360 7000 -RAPL SCT040 03/01 Q1029 NOSIG

EXPIRED METARs :
  • 161900Z 34002MPS 6000 -RAPL SCT040 03/01 Q1028 NOSIG
  • 161800Z 32002MPS 5000 -RA BR SCT040 03/02 Q1029 NOSIG

TAF TAF ZSNB
Valid from the 16 at 18:00 until the 17 at 18:00 UTC


161413Z 1618/1718 36003MPS 3000 -RA BR SCT005 BKN016 TX06/1706Z TN03/1621Z
ZSHA FIR / Asia



MET'MAP, your aeronautical weather chart ! - Copyright ORBIFLY December 2007 - Disclaimer

ORBIFLY MET'MAP TEAM :

Programming & Development : Alexandra Zaïnal
Concept & Development : Baudouin d'Aumeries
Co-Development & Prog : Marc-Olivier Méhu
Technical & hardware support : Manuel Goepfert

Contact : metmap@orbifly.com




SOURCES & CREDITS :

   NOAA       Earth
Advisory